Time,TemperatureF,DewpointF,PressureIn,WindDirection,WindDirectionDegrees,WindSpeedMPH,WindSpeedGustMPH,Humidity,HourlyPrecipIn,Conditions,Clouds,dailyrainin,SoftwareType,DateUTC
2013-08-09 00:04:00,61.0,40.0,-100.00,East,100,19.0,27.0,47,0.00,,,-99.99,,2013-08-09 00:04:00,
2013-08-09 00:14:00,61.0,40.0,-100.00,East,100,17.0,23.0,45,0.00,,,-99.99,,2013-08-09 00:14:00,
2013-08-09 00:24:00,62.0,39.0,-100.00,East,100,15.0,19.0,41,0.00,,,-99.99,,2013-08-09 00:24:00,
2013-08-09 00:34:00,62.0,40.0,-100.00,East,100,12.0,17.0,45,0.00,,,-99.99,,2013-08-09 00:34:00,
2013-08-09 00:45:00,61.0,41.0,-100.00,ESE,123,11.0,16.0,49,0.00,,,-99.99,,2013-08-09 00:45:00,
2013-08-09 00:53:00,61.0,41.0,-100.00,SSE,147,9.0,14.0,48,0.00,,,-99.99,,2013-08-09 00:53:00,
2013-08-09 01:02:00,61.0,41.0,-100.00,SSE,152,8.0,11.0,48,0.00,,,-99.99,,2013-08-09 01:02:00,
2013-08-09 01:13:00,62.0,39.0,-100.00,SE,138,10.0,14.0,44,0.00,,,-99.99,,2013-08-09 01:13:00,
2013-08-09 01:23:00,61.0,39.0,-100.00,SE,141,10.0,14.0,45,0.00,,,-99.99,,2013-08-09 01:23:00,
2013-08-09 01:33:00,59.0,40.0,-100.00,ESE,104,9.0,17.0,49,0.00,,,-99.99,,2013-08-09 01:33:00,
2013-08-09 01:45:00,59.0,40.0,-100.00,ESE,106,9.0,16.0,50,0.00,,,-99.99,,2013-08-09 01:45:00,
2013-08-09 02:03:00,58.0,41.0,-100.00,ESE,120,7.0,14.0,53,0.00,,,-99.99,,2013-08-09 02:03:00,
2013-08-09 02:12:00,57.0,41.0,-100.00,SE,136,6.0,7.0,54,0.00,,,-99.99,,2013-08-09 02:12:00,
2013-08-09 02:23:00,56.0,41.0,-100.00,SSE,165,5.0,7.0,56,0.00,,,-99.99,,2013-08-09 02:23:00,
2013-08-09 02:35:00,56.0,40.0,-100.00,South,182,6.0,8.0,56,0.00,,,-99.99,,2013-08-09 02:35:00,
2013-08-09 02:44:00,55.0,40.0,-100.00,SSW,208,9.0,11.0,57,0.00,,,-99.99,,2013-08-09 02:44:00,
2013-08-09 02:55:00,55.0,41.0,-100.00,SSW,209,8.0,11.0,57,0.00,,,-99.99,,2013-08-09 02:55:00,
2013-08-09 03:04:00,55.0,41.0,-100.00,SW,220,6.0,8.0,58,0.00,,,-99.99,,2013-08-09 03:04:00,
2013-08-09 03:13:00,55.0,40.0,-100.00,SW,226,3.0,6.0,57,0.00,,,-99.99,,2013-08-09 03:13:00,
2013-08-09 03:23:00,55.0,41.0,-100.00,SSW,208,3.0,5.0,58,0.00,,,-99.99,,2013-08-09 03:23:00,
2013-08-09 03:34:00,55.0,42.0,-100.00,SE,128,2.0,6.0,61,0.00,,,-99.99,,2013-08-09 03:34:00,
2013-08-09 03:44:00,56.0,43.0,-100.00,SE,141,6.0,9.0,61,0.00,,,-99.99,,2013-08-09 03:44:00,
2013-08-09 03:52:00,55.0,42.0,-100.00,South,181,9.0,11.0,61,0.00,,,-99.99,,2013-08-09 03:52:00,
2013-08-09 04:01:00,54.0,42.0,-100.00,South,182,7.0,9.0,63,0.00,,,-99.99,,2013-08-09 04:01:00,
2013-08-09 04:12:00,54.0,43.0,-100.00,SE,131,7.0,13.0,67,0.00,,,-99.99,,2013-08-09 04:12:00,
2013-08-09 04:22:00,52.0,44.0,-100.00,ESE,120,10.0,17.0,73,0.00,,,-99.99,,2013-08-09 04:22:00,
2013-08-09 04:33:00,55.0,43.0,-100.00,South,171,6.0,11.0,64,0.00,,,-99.99,,2013-08-09 04:33:00,
2013-08-09 04:43:00,52.0,43.0,-100.00,ENE,65,6.0,12.0,72,0.00,,,-99.99,,2013-08-09 04:43:00,
2013-08-09 04:53:00,53.0,43.0,-100.00,SSE,167,2.0,6.0,68,0.00,,,-99.99,,2013-08-09 04:53:00,
2013-08-09 05:02:00,53.0,44.0,-100.00,South,172,4.0,7.0,70,0.00,,,-99.99,,2013-08-09 05:02:00,
2013-08-09 05:11:00,52.0,43.0,-100.00,SSW,196,6.0,11.0,71,0.00,,,-99.99,,2013-08-09 05:11:00,
2013-08-09 05:21:00,50.0,43.0,-100.00,South,171,9.0,11.0,75,0.00,,,-99.99,,2013-08-09 05:21:00,
2013-08-09 05:32:00,51.0,43.0,-100.00,South,172,6.0,10.0,73,0.00,,,-99.99,,2013-08-09 05:32:00,
2013-08-09 05:43:00,51.0,43.0,-100.00,SSW,196,4.0,6.0,73,0.00,,,-99.99,,2013-08-09 05:43:00,
2013-08-09 05:52:00,51.0,42.0,-100.00,South,172,5.0,6.0,72,0.00,,,-99.99,,2013-08-09 05:52:00,
2013-08-09 06:01:00,51.0,42.0,-100.00,SSW,213,7.0,9.0,73,0.00,,,-99.99,,2013-08-09 06:01:00,
2013-08-09 06:11:00,50.0,42.0,-100.00,West,263,4.0,7.0,75,0.00,,,-99.99,,2013-08-09 06:11:00,
2013-08-09 06:21:00,50.0,42.0,-100.00,West,272,4.0,6.0,74,0.00,,,-99.99,,2013-08-09 06:21:00,
2013-08-09 06:32:00,51.0,43.0,-100.00,SW,233,7.0,9.0,71,0.00,,,-99.99,,2013-08-09 06:32:00,
2013-08-09 06:43:00,52.0,43.0,-100.00,SW,230,9.0,10.0,71,0.00,,,-99.99,,2013-08-09 06:43:00,
2013-08-09 06:52:00,52.0,43.0,-100.00,SW,229,9.0,10.0,71,0.00,,,-99.99,,2013-08-09 06:52:00,
2013-08-09 07:01:00,52.0,43.0,-100.00,SW,233,9.0,9.0,72,0.00,,,-99.99,,2013-08-09 07:01:00,
2013-08-09 07:12:00,50.0,43.0,-100.00,WSW,256,6.0,8.0,75,0.00,,,-99.99,,2013-08-09 07:12:00,
2013-08-09 07:22:00,49.0,42.0,-100.00,West,267,4.0,6.0,76,0.00,,,-99.99,,2013-08-09 07:22:00,
2013-08-09 07:33:00,49.0,42.0,-100.00,West,260,4.0,5.0,76,0.00,,,-99.99,,2013-08-09 07:33:00,
2013-08-09 07:43:00,49.0,42.0,-100.00,West,272,4.0,6.0,76,0.00,,,-99.99,,2013-08-09 07:43:00,
2013-08-09 07:52:00,50.0,41.0,-100.00,West,272,2.0,6.0,72,0.00,,,-99.99,,2013-08-09 07:52:00,
2013-08-09 08:02:00,49.0,40.0,-100.00,West,270,2.0,7.0,71,0.00,,,-99.99,,2013-08-09 08:02:00,
2013-08-09 08:12:00,52.0,40.0,-100.00,SW,229,9.0,12.0,62,0.00,,,-99.99,,2013-08-09 08:12:00,
2013-08-09 08:22:00,52.0,39.0,-100.00,SW,224,10.0,12.0,61,0.00,,,-99.99,,2013-08-09 08:22:00,
2013-08-09 08:32:00,52.0,39.0,-100.00,SW,226,10.0,11.0,61,0.00,,,-99.99,,2013-08-09 08:32:00,
2013-08-09 08:43:00,51.0,39.0,-100.00,SSW,213,10.0,11.0,61,0.00,,,-99.99,,2013-08-09 08:43:00,
2013-08-09 08:53:00,51.0,39.0,-100.00,SW,226,10.0,12.0,62,0.00,,,-99.99,,2013-08-09 08:53:00,
2013-08-09 09:02:00,51.0,38.0,-100.00,SW,230,10.0,12.0,61,0.00,,,-99.99,,2013-08-09 09:02:00,
2013-08-09 09:12:00,52.0,38.0,-100.00,SW,232,9.0,10.0,60,0.00,,,-99.99,,2013-08-09 09:12:00,
2013-08-09 09:22:00,52.0,38.0,-100.00,SW,224,9.0,10.0,59,0.00,,,-99.99,,2013-08-09 09:22:00,
2013-08-09 09:32:00,50.0,38.0,-100.00,SW,224,9.0,11.0,64,0.00,,,-99.99,,2013-08-09 09:32:00,
2013-08-09 09:43:00,50.0,39.0,-100.00,SW,224,9.0,11.0,65,0.00,,,-99.99,,2013-08-09 09:43:00,
2013-08-09 09:52:00,51.0,39.0,-100.00,SW,230,9.0,11.0,64,0.00,,,-99.99,,2013-08-09 09:52:00,
2013-08-09 10:01:00,53.0,40.0,-100.00,SW,234,9.0,10.0,61,0.00,,,-99.99,,2013-08-09 10:01:00,
2013-08-09 10:12:00,53.0,40.0,-100.00,SW,234,7.0,9.0,62,0.00,,,-99.99,,2013-08-09 10:12:00,
2013-08-09 10:22:00,52.0,40.0,-100.00,SW,226,6.0,7.0,64,0.00,,,-99.99,,2013-08-09 10:22:00,
2013-08-09 10:32:00,52.0,40.0,-100.00,SW,216,4.0,6.0,63,0.00,,,-99.99,,2013-08-09 10:32:00,
2013-08-09 10:43:00,45.0,37.0,-100.00,East,97,3.0,7.0,75,0.00,,,-99.99,,2013-08-09 10:43:00,
2013-08-09 10:53:00,44.0,36.0,-100.00,East,100,4.0,9.0,75,0.00,,,-99.99,,2013-08-09 10:53:00,
2013-08-09 11:01:00,43.0,39.0,-100.00,NNE,20,4.0,6.0,85,0.00,,,-99.99,,2013-08-09 11:01:00,
2013-08-09 11:11:00,44.0,39.0,-100.00,NE,56,2.0,6.0,81,0.00,,,-99.99,,2013-08-09 11:11:00,
2013-08-09 11:22:00,46.0,40.0,-100.00,ESE,109,6.0,9.0,80,0.00,,,-99.99,,2013-08-09 11:22:00,
2013-08-09 11:33:00,45.0,40.0,-100.00,ENE,62,4.0,7.0,80,0.00,,,-99.99,,2013-08-09 11:33:00,
2013-08-09 11:42:00,44.0,39.0,-100.00,SE,134,2.0,6.0,82,0.00,,,-99.99,,2013-08-09 11:42:00,
2013-08-09 11:53:00,46.0,40.0,-100.00,SE,138,4.0,6.0,78,0.00,,,-99.99,,2013-08-09 11:53:00,
2013-08-09 12:02:00,44.0,40.0,-100.00,ENE,75,3.0,4.0,83,0.00,,,-99.99,,2013-08-09 12:02:00,
2013-08-09 12:12:00,45.0,39.0,-100.00,SSE,152,2.0,6.0,81,0.00,,,-99.99,,2013-08-09 12:12:00,
2013-08-09 12:22:00,45.0,40.0,-100.00,SW,232,1.0,3.0,82,0.00,,,-99.99,,2013-08-09 12:22:00,
2013-08-09 12:32:00,46.0,40.0,-100.00,SSE,157,1.0,3.0,80,0.00,,,-99.99,,2013-08-09 12:32:00,
2013-08-09 12:43:00,46.0,40.0,-100.00,SSE,154,1.0,3.0,80,0.00,,,-99.99,,2013-08-09 12:43:00,
2013-08-09 12:52:00,46.0,40.0,-100.00,WSW,253,1.0,4.0,80,0.00,,,-99.99,,2013-08-09 12:52:00,
2013-08-09 13:01:00,46.0,40.0,-100.00,WSW,251,1.0,3.0,79,0.00,,,-99.99,,2013-08-09 13:01:00,
2013-08-09 13:12:00,46.0,40.0,-100.00,WSW,237,1.0,4.0,79,0.00,,,-99.99,,2013-08-09 13:12:00,
2013-08-09 13:23:00,47.0,40.0,-100.00,West,268,1.0,2.0,78,0.00,,,-99.99,,2013-08-09 13:23:00,
2013-08-09 13:32:00,48.0,41.0,-100.00,ESE,106,1.0,4.0,76,0.00,,,-99.99,,2013-08-09 13:32:00,
2013-08-09 13:43:00,50.0,42.0,-100.00,South,191,1.0,3.0,74,0.00,,,-99.99,,2013-08-09 13:43:00,
2013-08-09 13:52:00,52.0,42.0,-100.00,NNE,32,1.0,2.0,69,0.00,,,-99.99,,2013-08-09 13:52:00,
2013-08-09 14:02:00,54.0,43.0,-100.00,ESE,116,0.0,1.0,66,0.00,,,-99.99,,2013-08-09 14:02:00,
2013-08-09 14:11:00,54.0,42.0,-100.00,East,83,1.0,3.0,66,0.00,,,-99.99,,2013-08-09 14:11:00,
2013-08-09 14:33:00,57.0,42.0,-100.00,ENE,75,1.0,4.0,59,0.00,,,-99.99,,2013-08-09 14:33:00,
2013-08-09 15:33:00,64.0,40.0,-100.00,SSE,165,6.0,10.0,41,0.00,,,-99.99,,2013-08-09 15:33:00,
2013-08-09 15:44:00,65.0,38.0,-100.00,SSE,158,7.0,10.0,37,0.00,,,-99.99,,2013-08-09 15:44:00,
2013-08-09 15:53:00,65.0,38.0,-100.00,SSE,150,8.0,12.0,37,0.00,,,-99.99,,2013-08-09 15:53:00,
2013-08-09 16:01:00,66.0,37.0,-100.00,SE,138,7.0,12.0,35,0.00,,,-99.99,,2013-08-09 16:01:00,
2013-08-09 16:11:00,67.0,37.0,-100.00,ESE,109,6.0,12.0,34,0.00,,,-99.99,,2013-08-09 16:11:00,
2013-08-09 16:22:00,67.0,39.0,-100.00,ESE,109,7.0,12.0,36,0.00,,,-99.99,,2013-08-09 16:22:00,
2013-08-09 16:32:00,67.0,38.0,-100.00,ESE,109,6.0,11.0,34,0.00,,,-99.99,,2013-08-09 16:32:00,
2013-08-09 16:43:00,67.0,40.0,-100.00,ESE,109,7.0,15.0,38,0.00,,,-99.99,,2013-08-09 16:43:00,
2013-08-09 16:53:00,65.0,37.0,-100.00,ESE,109,12.0,18.0,36,0.00,,,-99.99,,2013-08-09 16:53:00,
2013-08-09 17:02:00,65.0,39.0,-100.00,ESE,109,9.0,16.0,38,0.00,,,-99.99,,2013-08-09 17:02:00,
2013-08-09 17:11:00,66.0,38.0,-100.00,ESE,109,8.0,16.0,36,0.00,,,-99.99,,2013-08-09 17:11:00,
2013-08-09 17:22:00,67.0,39.0,-100.00,ESE,109,7.0,19.0,35,0.00,,,-99.99,,2013-08-09 17:22:00,
2013-08-09 17:33:00,67.0,39.0,-100.00,ESE,109,9.0,18.0,35,0.00,,,-99.99,,2013-08-09 17:33:00,
2013-08-09 17:43:00,68.0,40.0,-100.00,ESE,109,7.0,17.0,36,0.00,,,-99.99,,2013-08-09 17:43:00,
2013-08-09 17:52:00,68.0,39.0,-100.00,ESE,109,9.0,15.0,34,0.00,,,-99.99,,2013-08-09 17:52:00,
2013-08-09 18:01:00,70.0,40.0,-100.00,ESE,109,7.0,13.0,33,0.00,,,-99.99,,2013-08-09 18:01:00,
2013-08-09 18:11:00,69.0,38.0,-100.00,ESE,109,9.0,17.0,32,0.00,,,-99.99,,2013-08-09 18:11:00,
2013-08-09 18:22:00,69.0,38.0,-100.00,ESE,109,9.0,17.0,31,0.00,,,-99.99,,2013-08-09 18:22:00,
2013-08-09 18:32:00,69.0,37.0,-100.00,ESE,109,6.0,12.0,32,0.00,,,-99.99,,2013-08-09 18:32:00,
2013-08-09 18:43:00,69.0,37.0,-100.00,ESE,109,5.0,12.0,31,0.00,,,-99.99,,2013-08-09 18:43:00,
2013-08-09 18:52:00,72.0,37.0,-100.00,ESE,109,7.0,14.0,28,0.00,,,-99.99,,2013-08-09 18:52:00,
2013-08-09 19:02:00,70.0,37.0,-100.00,ESE,109,9.0,17.0,29,0.00,,,-99.99,,2013-08-09 19:02:00,
2013-08-09 19:11:00,71.0,36.0,-100.00,ESE,109,6.0,11.0,28,0.00,,,-99.99,,2013-08-09 19:11:00,
2013-08-09 19:22:00,69.0,36.0,-100.00,ESE,109,7.0,13.0,30,0.00,,,-99.99,,2013-08-09 19:22:00,
2013-08-09 19:32:00,69.0,35.0,-100.00,ESE,109,9.0,16.0,28,0.00,,,-99.99,,2013-08-09 19:32:00,
2013-08-09 19:43:00,69.0,36.0,-100.00,ESE,109,6.0,10.0,30,0.00,,,-99.99,,2013-08-09 19:43:00,
2013-08-09 19:52:00,69.0,37.0,-100.00,ESE,109,7.0,11.0,31,0.00,,,-99.99,,2013-08-09 19:52:00,
2013-08-09 20:02:00,68.0,37.0,-100.00,ESE,109,12.0,17.0,32,0.00,,,-99.99,,2013-08-09 20:02:00,
2013-08-09 20:11:00,68.0,37.0,-100.00,ESE,109,12.0,17.0,32,0.00,,,-99.99,,2013-08-09 20:11:00,
2013-08-09 20:22:00,67.0,36.0,-100.00,ESE,109,14.0,20.0,31,0.00,,,-99.99,,2013-08-09 20:22:00,
2013-08-09 20:32:00,67.0,37.0,-100.00,ESE,109,17.0,22.0,33,0.00,,,-99.99,,2013-08-09 20:32:00,
2013-08-09 20:43:00,66.0,38.0,-100.00,ESE,109,17.0,22.0,37,0.00,,,-99.99,,2013-08-09 20:43:00,
2013-08-09 20:52:00,65.0,38.0,-100.00,ESE,109,16.0,20.0,36,0.00,,,-99.99,,2013-08-09 20:52:00,
2013-08-09 21:01:00,65.0,37.0,-100.00,ESE,109,17.0,21.0,36,0.00,,,-99.99,,2013-08-09 21:01:00,
2013-08-09 21:12:00,66.0,37.0,-100.00,ESE,109,16.0,21.0,35,0.00,,,-99.99,,2013-08-09 21:12:00,
2013-08-09 21:22:00,66.0,38.0,-100.00,ESE,109,14.0,19.0,35,0.00,,,-99.99,,2013-08-09 21:22:00,
2013-08-09 21:33:00,66.0,37.0,-100.00,ESE,109,14.0,23.0,35,0.00,,,-99.99,,2013-08-09 21:33:00,
2013-08-09 21:43:00,64.0,39.0,-100.00,ESE,109,20.0,26.0,39,0.00,,,-99.99,,2013-08-09 21:43:00,
2013-08-09 21:52:00,64.0,37.0,-100.00,ESE,109,19.0,24.0,36,0.00,,,-99.99,,2013-08-09 21:52:00,
2013-08-09 22:01:00,64.0,39.0,-100.00,ESE,109,19.0,29.0,39,0.00,,,-99.99,,2013-08-09 22:01:00,
2013-08-09 22:11:00,63.0,40.0,-100.00,ESE,109,17.0,22.0,42,0.00,,,-99.99,,2013-08-09 22:11:00,
2013-08-09 22:22:00,62.0,44.0,-100.00,ESE,109,20.0,25.0,52,0.00,,,-99.99,,2013-08-09 22:22:00,
2013-08-09 22:32:00,60.0,44.0,-100.00,ESE,109,21.0,27.0,55,0.00,,,-99.99,,2013-08-09 22:32:00,
2013-08-09 22:42:00,62.0,42.0,-100.00,ESE,109,20.0,26.0,47,0.00,,,-99.99,,2013-08-09 22:42:00,
2013-08-09 22:52:00,63.0,43.0,-100.00,ESE,109,17.0,23.0,49,0.00,,,-99.99,,2013-08-09 22:52:00,
2013-08-09 23:01:00,63.0,42.0,-100.00,ESE,109,19.0,26.0,47,0.00,,,-99.99,,2013-08-09 23:01:00,
2013-08-09 23:11:00,63.0,41.0,-100.00,ESE,109,23.0,29.0,44,0.00,,,-99.99,,2013-08-09 23:11:00,
2013-08-09 23:21:00,63.0,42.0,-100.00,ESE,109,24.0,32.0,47,0.00,,,-99.99,,2013-08-09 23:21:00,
2013-08-09 23:32:00,62.0,44.0,-100.00,ESE,109,24.0,31.0,51,0.00,,,-99.99,,2013-08-09 23:32:00,
2013-08-09 23:43:00,63.0,43.0,-100.00,ESE,109,20.0,25.0,48,0.00,,,-99.99,,2013-08-09 23:43:00,
2013-08-09 23:52:00,63.0,42.0,-100.00,ESE,109,17.0,22.0,45,0.00,,,-99.99,,2013-08-09 23:52:00,